createdAt,value
2018-12-24T00:00:45.806Z,11.31
2018-12-24T00:03:17.819Z,11.26
2018-12-24T00:05:49.837Z,11.35
2018-12-24T00:08:21.836Z,11.35
2018-12-24T00:10:53.871Z,11.31
2018-12-24T00:13:25.860Z,11.35
2018-12-24T00:15:58.019Z,11.39
2018-12-24T00:18:30.016Z,11.31
2018-12-24T00:21:02.043Z,11.39
2018-12-24T00:23:34.043Z,11.41
2018-12-24T00:26:06.215Z,11.37
2018-12-24T00:28:38.211Z,11.33
2018-12-24T00:31:10.237Z,11.24
2018-12-24T00:33:42.262Z,11.34
2018-12-24T00:36:14.298Z,11.33
2018-12-24T00:38:46.287Z,11.43
2018-12-24T00:41:18.322Z,11.40
2018-12-24T00:43:50.303Z,11.38
2018-12-24T00:46:22.276Z,11.39
2018-12-24T00:48:54.322Z,11.39
2018-12-24T00:51:26.330Z,11.39
2018-12-24T00:53:58.269Z,11.36
2018-12-24T00:56:30.275Z,11.38
2018-12-24T00:59:02.301Z,11.48
2018-12-24T01:01:34.291Z,11.42
2018-12-24T01:04:06.304Z,11.38
2018-12-24T01:06:38.491Z,11.40
2018-12-24T01:09:10.491Z,11.30
2018-12-24T01:11:42.463Z,11.37
2018-12-24T01:14:14.502Z,11.36
2018-12-24T01:16:46.525Z,11.37
2018-12-24T01:19:18.488Z,11.26
2018-12-24T01:21:50.467Z,11.21
2018-12-24T01:24:22.443Z,11.39
2018-12-24T01:26:54.431Z,11.42
2018-12-24T01:29:26.407Z,11.32
2018-12-24T01:31:58.370Z,11.45
2018-12-24T01:34:30.359Z,11.40
2018-12-24T01:37:02.420Z,11.41
2018-12-24T01:39:34.492Z,11.49
2018-12-24T01:42:06.462Z,11.42
2018-12-24T01:44:38.457Z,11.42
2018-12-24T01:47:10.438Z,11.50
2018-12-24T01:49:42.429Z,11.51
2018-12-24T01:52:14.413Z,11.54
2018-12-24T01:54:46.442Z,11.53
2018-12-24T01:57:18.501Z,11.53
2018-12-24T01:59:50.515Z,11.46
2018-12-24T02:02:22.469Z,11.62
2018-12-24T02:04:54.459Z,11.52
2018-12-24T02:07:26.416Z,11.52
2018-12-24T02:09:58.401Z,11.53
2018-12-24T02:12:30.423Z,11.50
2018-12-24T02:15:02.405Z,11.48
2018-12-24T02:17:34.423Z,11.46
2018-12-24T02:20:06.400Z,10.96
2018-12-24T02:22:38.401Z,10.56
2018-12-24T02:25:10.369Z,10.06
2018-12-24T02:27:42.345Z,9.88
2018-12-24T02:30:14.313Z,9.69
2018-12-24T02:32:46.306Z,9.51
2018-12-24T02:35:18.286Z,9.37
2018-12-24T02:37:50.290Z,9.41
2018-12-24T02:40:41.727Z,9.28
2018-12-24T02:43:13.701Z,9.35
2018-12-24T02:45:45.685Z,9.35
2018-12-24T02:48:17.690Z,9.32
2018-12-24T02:50:49.666Z,9.25
2018-12-24T02:53:21.660Z,9.13
2018-12-24T02:55:53.617Z,9.18
2018-12-24T02:58:25.584Z,9.16
2018-12-24T03:00:57.544Z,9.14
2018-12-24T03:03:29.511Z,9.08
2018-12-24T03:06:01.463Z,9.03
2018-12-24T03:08:33.436Z,9.18
2018-12-24T03:11:05.410Z,9.15
2018-12-24T03:13:37.389Z,9.02
2018-12-24T03:16:09.348Z,9.16
2018-12-24T03:18:41.354Z,9.06
2018-12-24T03:21:13.310Z,8.96
2018-12-24T03:23:45.298Z,8.97
2018-12-24T03:26:36.725Z,8.90
2018-12-24T03:29:08.710Z,8.90
2018-12-24T03:31:40.691Z,8.84
2018-12-24T03:34:12.876Z,8.74
2018-12-24T03:36:44.863Z,8.77
2018-12-24T03:39:16.847Z,8.72
2018-12-24T03:41:48.818Z,8.65
2018-12-24T03:44:20.772Z,8.55
2018-12-24T03:46:52.754Z,8.61
2018-12-24T03:49:24.744Z,8.61
2018-12-24T03:51:56.705Z,8.46
2018-12-24T03:54:28.663Z,8.42
2018-12-24T03:57:00.654Z,8.38
2018-12-24T03:59:32.630Z,8.29
2018-12-24T04:02:04.564Z,8.23
2018-12-24T04:04:36.535Z,8.34
2018-12-24T04:07:08.515Z,8.24
2018-12-24T04:09:40.457Z,8.25
2018-12-24T04:12:12.417Z,7.92
2018-12-24T04:14:44.397Z,7.77
2018-12-24T04:17:16.376Z,7.64
2018-12-24T04:19:48.313Z,7.57
2018-12-24T04:22:20.307Z,7.50
2018-12-24T04:24:52.231Z,7.50
2018-12-24T04:27:24.222Z,7.36
2018-12-24T04:29:56.171Z,7.37
2018-12-24T04:32:28.163Z,7.28
2018-12-24T04:35:00.286Z,7.19
2018-12-24T04:37:32.283Z,7.06
2018-12-24T04:40:04.233Z,7.03
2018-12-24T04:42:36.235Z,6.86
2018-12-24T04:45:08.209Z,6.75
2018-12-24T04:47:40.216Z,6.81
2018-12-24T04:50:12.153Z,6.84
2018-12-24T04:52:44.119Z,6.97
2018-12-24T04:55:16.105Z,6.98
2018-12-24T04:57:48.096Z,6.97
2018-12-24T05:00:20.039Z,6.87
2018-12-24T05:02:52.044Z,6.80
2018-12-24T05:05:23.996Z,6.89
2018-12-24T05:07:55.954Z,6.86
2018-12-24T05:10:27.932Z,6.89
2018-12-24T05:12:59.866Z,6.91
2018-12-24T05:15:31.855Z,6.95
2018-12-24T05:18:03.810Z,6.96
2018-12-24T05:20:35.783Z,7.11
2018-12-24T05:23:07.756Z,7.12
2018-12-24T05:25:39.774Z,6.97
2018-12-24T05:28:11.729Z,6.94
2018-12-24T05:30:43.716Z,6.86
2018-12-24T05:33:15.667Z,6.71
2018-12-24T05:35:47.647Z,6.63
2018-12-24T05:38:19.591Z,6.69
2018-12-24T05:40:51.573Z,6.57
2018-12-24T05:43:23.518Z,6.49
2018-12-24T05:45:55.494Z,6.54
2018-12-24T05:48:27.474Z,6.46
2018-12-24T05:50:59.479Z,6.40
2018-12-24T05:53:31.449Z,6.34
2018-12-24T05:56:03.419Z,6.37
2018-12-24T05:58:35.380Z,6.36
2018-12-24T06:01:07.563Z,6.36
2018-12-24T06:03:39.535Z,6.39
2018-12-24T06:06:11.554Z,6.27
2018-12-24T06:08:43.551Z,6.27
2018-12-24T06:11:15.521Z,6.35
2018-12-24T06:13:47.494Z,6.41
2018-12-24T06:16:19.506Z,6.43
2018-12-24T06:18:51.469Z,6.43
2018-12-24T06:21:23.445Z,6.42
2018-12-24T06:23:55.393Z,6.48
2018-12-24T06:26:27.365Z,6.49
2018-12-24T06:28:59.356Z,6.52
2018-12-24T06:31:31.337Z,6.51
2018-12-24T06:34:03.304Z,6.51
2018-12-24T06:36:35.286Z,6.58
2018-12-24T06:39:07.251Z,6.46
2018-12-24T06:41:39.191Z,6.40
2018-12-24T06:44:11.199Z,6.27
2018-12-24T06:46:43.167Z,6.24
2018-12-24T06:49:15.177Z,6.20
2018-12-24T06:51:47.120Z,6.19
2018-12-24T06:54:19.115Z,6.19
2018-12-24T06:56:51.087Z,6.14
2018-12-24T06:59:23.084Z,6.14
2018-12-24T07:01:55.056Z,6.15
2018-12-24T07:04:27.030Z,6.30
2018-12-24T07:06:59.018Z,6.15
2018-12-24T07:09:30.971Z,6.17
2018-12-24T07:12:02.979Z,6.13
2018-12-24T07:14:34.978Z,6.18
2018-12-24T07:17:06.966Z,6.22
2018-12-24T07:19:38.933Z,6.23
2018-12-24T07:22:10.960Z,6.21
2018-12-24T07:24:42.914Z,6.21
2018-12-24T07:27:14.938Z,6.19
2018-12-24T07:29:46.961Z,6.23
2018-12-24T07:32:18.924Z,6.29
2018-12-24T07:34:50.981Z,6.27
2018-12-24T07:37:23.002Z,6.24
2018-12-24T07:39:54.973Z,6.23
2018-12-24T07:42:26.982Z,6.28
2018-12-24T07:44:58.966Z,6.18
2018-12-24T07:47:30.945Z,6.11
2018-12-24T07:50:03.149Z,6.24
2018-12-24T07:52:35.198Z,6.05
2018-12-24T07:55:07.187Z,5.97
2018-12-24T07:57:39.200Z,6.03
2018-12-24T08:00:11.198Z,6.16
2018-12-24T08:02:43.218Z,6.16
2018-12-24T08:05:15.176Z,6.00
2018-12-24T08:07:47.223Z,6.09
2018-12-24T08:10:19.207Z,6.00
2018-12-24T08:12:51.224Z,6.03
2018-12-24T08:15:23.258Z,5.97
2018-12-24T08:17:55.276Z,5.89
2018-12-24T08:20:27.255Z,6.10
2018-12-24T08:22:59.304Z,5.91
2018-12-24T08:25:31.280Z,5.98
2018-12-24T08:28:03.375Z,5.98
2018-12-24T08:30:35.351Z,6.01
2018-12-24T08:33:07.399Z,6.02
2018-12-24T08:35:39.377Z,6.01
2018-12-24T08:38:11.381Z,6.09
2018-12-24T08:40:43.349Z,6.10
2018-12-24T08:43:15.378Z,6.11
2018-12-24T08:45:47.347Z,6.05
2018-12-24T08:48:19.354Z,6.08
2018-12-24T08:50:51.358Z,6.08
2018-12-24T08:53:23.333Z,6.07
2018-12-24T08:55:55.361Z,6.00
2018-12-24T08:58:27.343Z,5.97
2018-12-24T09:00:59.357Z,6.01
2018-12-24T09:03:31.350Z,6.05
2018-12-24T09:06:03.364Z,6.02
2018-12-24T09:08:35.355Z,6.02
2018-12-24T09:11:07.369Z,5.98
2018-12-24T09:13:39.347Z,6.01
2018-12-24T09:16:11.352Z,6.12
2018-12-24T09:18:43.339Z,6.19
2018-12-24T09:24:15.211Z,6.34
2018-12-24T09:26:47.173Z,6.42
2018-12-24T09:29:19.189Z,6.45
2018-12-24T09:31:51.194Z,6.51
2018-12-24T09:34:23.190Z,6.58
2018-12-24T09:36:55.219Z,6.61
2018-12-24T09:39:27.215Z,6.61
2018-12-24T09:41:59.233Z,6.64
2018-12-24T09:44:31.245Z,6.62
2018-12-24T09:47:03.259Z,6.67
2018-12-24T09:49:35.266Z,6.65
2018-12-24T09:52:07.297Z,6.70
2018-12-24T09:54:39.294Z,6.75
2018-12-24T09:57:11.448Z,6.74
2018-12-24T09:59:43.464Z,6.79
2018-12-24T10:02:16.447Z,6.80
2018-12-24T10:04:52.876Z,6.82
2018-12-24T10:07:47.291Z,6.80
2018-12-24T10:10:19.570Z,6.63
2018-12-24T10:12:51.575Z,6.67
2018-12-24T10:15:23.577Z,6.68
2018-12-24T10:17:55.616Z,6.72
2018-12-24T10:20:27.652Z,6.85
2018-12-24T10:22:59.722Z,6.92
2018-12-24T10:25:31.760Z,7.04
2018-12-24T10:28:03.802Z,7.04
2018-12-24T10:30:35.806Z,7.16
2018-12-24T10:33:07.784Z,7.04
2018-12-24T10:35:39.824Z,7.08
2018-12-24T10:38:11.771Z,7.10
2018-12-24T10:40:58.475Z,7.18
2018-12-24T10:43:30.460Z,7.32
2018-12-24T10:46:02.594Z,7.25
2018-12-24T10:48:34.649Z,7.25
2018-12-24T10:51:06.656Z,7.32
2018-12-24T10:53:38.656Z,7.33
2018-12-24T10:56:10.679Z,7.29
2018-12-24T10:58:42.699Z,7.28
2018-12-24T11:01:14.730Z,7.32
2018-12-24T11:03:46.791Z,7.44
2018-12-24T11:06:18.793Z,7.56
2018-12-24T11:08:50.802Z,7.49
2018-12-24T11:11:23.149Z,7.38
2018-12-24T11:13:55.158Z,7.35
2018-12-24T11:16:27.183Z,7.31
2018-12-24T11:18:59.212Z,7.34
2018-12-24T11:21:31.279Z,7.40
2018-12-24T11:24:03.302Z,7.32
2018-12-24T11:26:35.369Z,7.29
2018-12-24T11:29:07.430Z,7.37
2018-12-24T11:31:39.464Z,7.39
2018-12-24T11:34:11.425Z,7.37
2018-12-24T11:36:43.466Z,7.36
2018-12-24T11:39:15.510Z,7.39
2018-12-24T11:41:47.498Z,7.50
2018-12-24T11:44:19.603Z,7.66
2018-12-24T11:46:51.666Z,7.68
2018-12-24T11:49:23.740Z,7.66
2018-12-24T11:51:55.778Z,7.57
2018-12-24T11:54:27.818Z,7.55
2018-12-24T11:56:59.801Z,7.44
2018-12-24T11:59:31.840Z,7.35
2018-12-24T12:02:09.888Z,7.34
2018-12-24T12:04:37.832Z,7.34
2018-12-24T12:07:09.923Z,7.26
2018-12-24T12:09:41.956Z,7.15
2018-12-24T12:12:13.957Z,7.05
2018-12-24T12:14:46.030Z,6.88
2018-12-24T12:17:18.116Z,6.80
2018-12-24T12:19:50.135Z,6.69
2018-12-24T12:22:22.177Z,6.76
2018-12-24T12:24:54.229Z,6.80
2018-12-24T12:27:26.220Z,6.80
2018-12-24T12:29:58.253Z,6.82
2018-12-24T12:32:30.297Z,6.81
2018-12-24T12:35:02.331Z,6.73
2018-12-24T12:37:34.411Z,6.58
2018-12-24T12:40:06.522Z,6.59
2018-12-24T12:42:38.571Z,6.56
2018-12-24T12:45:13.069Z,6.45
2018-12-24T12:47:45.110Z,6.40
2018-12-24T12:50:17.162Z,6.40
2018-12-24T12:52:49.283Z,6.43
2018-12-24T12:55:21.363Z,6.43
2018-12-24T12:57:53.400Z,6.53
2018-12-24T13:00:25.493Z,6.51
2018-12-24T13:02:57.516Z,6.42
2018-12-24T13:05:29.598Z,6.51
2018-12-24T13:08:01.619Z,6.44
2018-12-24T13:10:33.677Z,6.44
2018-12-24T13:13:05.692Z,6.51
2018-12-24T13:15:37.758Z,6.57
2018-12-24T13:18:09.866Z,6.67
2018-12-24T13:20:41.874Z,6.74
2018-12-24T13:23:13.877Z,6.73
2018-12-24T13:25:46.004Z,6.82
2018-12-24T13:28:18.039Z,6.81
2018-12-24T13:30:50.135Z,6.82
2018-12-24T13:33:22.198Z,6.75
2018-12-24T13:35:54.260Z,6.79
2018-12-24T13:38:26.347Z,6.70
2018-12-24T13:40:58.405Z,6.66
2018-12-24T13:43:30.472Z,6.64
2018-12-24T13:46:08.041Z,6.61
2018-12-24T13:48:37.453Z,6.47
2018-12-24T13:51:09.553Z,6.41
2018-12-24T13:53:42.213Z,6.36
2018-12-24T13:56:14.364Z,6.31
2018-12-24T13:58:46.427Z,6.29
2018-12-24T14:01:18.439Z,6.25
2018-12-24T14:03:50.526Z,6.24
2018-12-24T14:06:22.535Z,6.16
2018-12-24T14:08:54.608Z,6.19
2018-12-24T14:11:26.664Z,6.20
2018-12-24T14:13:58.703Z,6.24
2018-12-24T14:16:30.774Z,6.26
2018-12-24T14:19:02.932Z,6.25
2018-12-24T14:21:34.989Z,6.39
2018-12-24T14:24:07.076Z,6.42
2018-12-24T14:26:39.126Z,6.45
2018-12-24T14:29:11.193Z,6.57
2018-12-24T14:31:43.263Z,6.60
2018-12-24T14:34:15.782Z,6.62
2018-12-24T14:36:47.855Z,6.64
2018-12-24T14:39:19.906Z,6.58
2018-12-24T14:41:51.968Z,6.56
2018-12-24T14:44:23.993Z,6.50
2018-12-24T14:46:56.038Z,6.57
2018-12-24T14:49:28.117Z,6.50
2018-12-24T14:52:00.199Z,6.45
2018-12-24T14:54:32.247Z,6.45
2018-12-24T14:57:04.291Z,6.43
2018-12-24T14:59:36.293Z,6.45
2018-12-24T15:02:08.539Z,6.45
2018-12-24T15:04:40.546Z,6.46
2018-12-24T15:07:12.569Z,6.44
2018-12-24T15:09:44.575Z,6.44
2018-12-24T15:12:16.619Z,6.38
2018-12-24T15:14:48.650Z,6.39
2018-12-24T15:17:20.660Z,6.39
2018-12-24T15:19:52.709Z,6.33
2018-12-24T15:22:24.707Z,6.34
2018-12-24T15:24:56.765Z,6.30
2018-12-24T15:27:28.821Z,6.30
2018-12-24T15:30:00.798Z,6.31
2018-12-24T15:32:32.838Z,6.31
2018-12-24T15:35:04.987Z,6.31
2018-12-24T15:37:37.007Z,6.28
2018-12-24T15:40:09.038Z,6.28
2018-12-24T15:42:41.079Z,6.25
2018-12-24T15:45:13.064Z,6.26
2018-12-24T15:47:45.165Z,6.27
2018-12-24T15:50:17.197Z,6.28
2018-12-24T15:52:49.212Z,6.25
2018-12-24T15:55:21.201Z,6.28
2018-12-24T15:57:53.222Z,6.25
2018-12-24T16:00:25.281Z,6.26
2018-12-24T16:02:57.254Z,6.26
2018-12-24T16:05:29.260Z,6.27
2018-12-24T16:08:01.342Z,6.27
2018-12-24T16:10:33.368Z,6.31
2018-12-24T16:13:05.411Z,6.24
2018-12-24T16:15:37.460Z,6.21
2018-12-24T16:18:09.495Z,6.13
2018-12-24T16:20:41.544Z,6.03
2018-12-24T16:23:13.611Z,6.00
2018-12-24T16:25:45.674Z,5.99
2018-12-24T16:28:17.802Z,5.95
2018-12-24T16:30:49.801Z,5.88
2018-12-24T16:33:21.794Z,5.89
2018-12-24T16:35:53.842Z,5.87
2018-12-24T16:38:25.893Z,5.81
2018-12-24T16:40:57.923Z,5.79
2018-12-24T16:43:29.929Z,5.80
2018-12-24T16:46:02.031Z,5.72
2018-12-24T16:48:34.057Z,5.64
2018-12-24T16:51:06.136Z,5.62
2018-12-24T16:53:40.574Z,5.59
2018-12-24T16:56:12.106Z,5.53
2018-12-24T16:58:44.117Z,5.51
2018-12-24T17:01:16.160Z,5.40
2018-12-24T17:03:48.160Z,5.36
2018-12-24T17:06:20.190Z,5.35
2018-12-24T17:08:52.210Z,5.32
2018-12-24T17:11:24.247Z,5.29
2018-12-24T17:13:56.266Z,5.24
2018-12-24T17:16:28.360Z,5.15
2018-12-24T17:19:00.391Z,5.10
2018-12-24T17:21:32.393Z,5.06
2018-12-24T17:24:04.399Z,5.01
2018-12-24T17:26:36.441Z,5.01
2018-12-24T17:29:08.462Z,4.93
2018-12-24T17:31:40.504Z,4.93
2018-12-24T17:34:12.565Z,4.95
2018-12-24T17:36:44.613Z,4.94
2018-12-24T17:39:16.604Z,4.92
2018-12-24T17:41:48.628Z,4.90
2018-12-24T17:44:20.622Z,4.89
2018-12-24T17:46:52.694Z,4.85
2018-12-24T17:49:24.761Z,4.81
2018-12-24T17:51:56.818Z,4.84
2018-12-24T17:54:28.846Z,4.90
2018-12-24T17:57:00.841Z,4.89
2018-12-24T17:59:32.878Z,4.87
2018-12-24T18:02:04.871Z,4.85
2018-12-24T18:04:36.876Z,4.81
2018-12-24T18:07:08.885Z,4.78
2018-12-24T18:09:40.954Z,4.79
2018-12-24T18:12:12.946Z,4.81
2018-12-24T18:14:45.004Z,4.78
2018-12-24T18:17:24.521Z,4.74
2018-12-24T18:19:50.951Z,4.76
2018-12-24T18:22:22.984Z,4.77
2018-12-24T18:24:55.025Z,4.77
2018-12-24T18:27:27.042Z,4.81
2018-12-24T18:29:59.083Z,4.88
2018-12-24T18:32:31.057Z,4.85
2018-12-24T18:35:03.513Z,4.71
2018-12-24T18:37:35.516Z,4.61
2018-12-24T18:40:07.571Z,4.49
2018-12-24T18:42:39.604Z,4.57
2018-12-24T18:45:11.807Z,4.55
2018-12-24T18:47:43.861Z,4.47
2018-12-24T18:50:15.954Z,4.50
2018-12-24T18:52:47.960Z,4.56
2018-12-24T18:55:20.358Z,4.58
2018-12-24T18:57:52.569Z,4.58
2018-12-24T19:00:24.613Z,4.64
2018-12-24T19:02:56.624Z,4.64
2018-12-24T19:05:28.664Z,4.66
2018-12-24T19:08:00.730Z,4.64
2018-12-24T19:10:32.721Z,4.58
2018-12-24T19:13:04.734Z,4.53
2018-12-24T19:15:36.730Z,4.53
2018-12-24T19:18:08.769Z,4.53
2018-12-24T19:20:40.834Z,4.46
2018-12-24T19:23:13.680Z,4.51
2018-12-24T19:25:45.681Z,4.45
2018-12-24T19:28:17.690Z,4.34
2018-12-24T19:30:49.723Z,4.26
2018-12-24T19:33:21.796Z,4.19
2018-12-24T19:35:53.793Z,4.18
2018-12-24T19:38:25.787Z,4.14
2018-12-24T19:40:57.810Z,4.10
2018-12-24T19:43:29.861Z,4.05
2018-12-24T19:46:01.915Z,4.00
2018-12-24T19:48:33.969Z,3.96
2018-12-24T19:51:06.005Z,3.91
2018-12-24T19:53:38.044Z,3.80
2018-12-24T19:56:10.040Z,3.71
2018-12-24T19:58:42.051Z,3.67
2018-12-24T20:01:14.052Z,3.70
2018-12-24T20:03:46.084Z,3.60
2018-12-24T20:06:18.106Z,3.57
2018-12-24T20:08:50.166Z,3.65
2018-12-24T20:11:22.188Z,3.69
2018-12-24T20:13:54.243Z,3.70
2018-12-24T20:16:26.265Z,3.77
2018-12-24T20:18:58.290Z,3.73
2018-12-24T20:21:30.322Z,3.69
2018-12-24T20:24:02.385Z,3.73
2018-12-24T20:26:34.379Z,3.72
2018-12-24T20:29:06.396Z,3.78
2018-12-24T20:31:38.369Z,3.84
2018-12-24T20:34:10.422Z,3.84
2018-12-24T20:36:42.752Z,3.94
2018-12-24T20:39:14.902Z,3.93
2018-12-24T20:41:46.929Z,3.92
2018-12-24T20:44:18.881Z,3.89
2018-12-24T20:46:50.950Z,3.87
2018-12-24T20:49:22.978Z,3.90
2018-12-24T20:51:54.985Z,3.93
2018-12-24T20:54:26.970Z,3.94
2018-12-24T20:56:59.035Z,3.99
2018-12-24T20:59:31.014Z,4.04
2018-12-24T21:02:03.064Z,4.07
2018-12-24T21:04:35.059Z,4.04
2018-12-24T21:07:07.128Z,4.04
2018-12-24T21:09:39.098Z,4.16
2018-12-24T21:12:11.193Z,4.11
2018-12-24T21:14:43.184Z,4.04
2018-12-24T21:17:15.200Z,3.96
2018-12-24T21:19:47.197Z,3.93
2018-12-24T21:22:19.279Z,3.90
2018-12-24T21:24:51.271Z,3.91
2018-12-24T21:27:23.334Z,3.91
2018-12-24T21:29:55.313Z,3.84
2018-12-24T21:32:27.362Z,3.87
2018-12-24T21:34:59.355Z,3.82
2018-12-24T21:37:31.402Z,3.79
2018-12-24T21:40:03.439Z,3.73
2018-12-24T21:42:35.453Z,3.72
2018-12-24T21:45:07.522Z,3.63
2018-12-24T21:47:39.586Z,3.61
2018-12-24T21:50:11.568Z,3.54
2018-12-24T21:52:43.600Z,3.51
2018-12-24T21:55:15.642Z,3.46
2018-12-24T21:57:47.725Z,3.43
2018-12-24T22:00:19.790Z,3.40
2018-12-24T22:02:52.071Z,3.33
2018-12-24T22:05:24.094Z,3.20
2018-12-24T22:07:56.164Z,3.22
2018-12-24T22:10:28.205Z,3.21
2018-12-24T22:13:00.246Z,3.19
2018-12-24T22:15:32.279Z,3.16
2018-12-24T22:18:04.302Z,3.11
2018-12-24T22:20:36.446Z,3.06
2018-12-24T22:23:08.559Z,3.00
2018-12-24T22:25:40.605Z,3.05
2018-12-24T22:28:12.633Z,3.00
2018-12-24T22:30:44.618Z,3.01
2018-12-24T22:33:16.627Z,2.99
2018-12-24T22:35:48.657Z,3.02
2018-12-24T22:38:20.679Z,2.99
2018-12-24T22:40:52.677Z,3.00
2018-12-24T22:43:24.665Z,2.92
2018-12-24T22:45:56.721Z,2.94
2018-12-24T22:48:28.709Z,2.97
2018-12-24T22:51:00.864Z,2.99
2018-12-24T22:53:32.844Z,2.95
2018-12-24T22:56:04.861Z,2.91
2018-12-24T22:58:36.890Z,2.90
2018-12-24T23:01:08.908Z,2.92
2018-12-24T23:03:40.927Z,2.96
2018-12-24T23:06:12.939Z,3.02
2018-12-24T23:08:44.941Z,3.04
2018-12-24T23:11:17.039Z,3.09
2018-12-24T23:13:49.136Z,3.13
2018-12-24T23:16:21.195Z,3.16
2018-12-24T23:18:53.214Z,3.18
2018-12-24T23:21:25.232Z,3.10
2018-12-24T23:23:57.264Z,3.06
2018-12-24T23:26:29.281Z,3.05
2018-12-24T23:29:01.311Z,3.04
2018-12-24T23:31:33.389Z,3.08
2018-12-24T23:34:05.436Z,3.10
2018-12-24T23:36:37.438Z,3.12
2018-12-24T23:39:09.529Z,3.05
2018-12-24T23:41:41.528Z,2.99
2018-12-24T23:44:13.539Z,2.99
2018-12-24T23:46:45.563Z,3.01
2018-12-24T23:49:17.608Z,2.90
2018-12-24T23:51:49.618Z,2.87
2018-12-24T23:54:21.732Z,2.92
2018-12-24T23:56:53.736Z,2.87
2018-12-24T23:59:25.732Z,2.83
